sensor_id;sensor_type;location;lat;lon;timestamp;P1;durP1;ratioP1;P2;durP2;ratioP2
7377;SDS011;3730;50.856;12.776;2023-09-07T00:00:22;8.10;;;4.70;;
7377;SDS011;3730;50.856;12.776;2023-09-07T00:02:47;5.23;;;4.73;;
7377;SDS011;3730;50.856;12.776;2023-09-07T00:05:13;6.33;;;5.00;;
7377;SDS011;3730;50.856;12.776;2023-09-07T00:07:39;6.63;;;4.63;;
7377;SDS011;3730;50.856;12.776;2023-09-07T00:10:05;5.27;;;4.80;;
7377;SDS011;3730;50.856;12.776;2023-09-07T00:12:31;5.10;;;4.70;;
7377;SDS011;3730;50.856;12.776;2023-09-07T00:14:57;5.07;;;4.60;;
7377;SDS011;3730;50.856;12.776;2023-09-07T00:17:23;5.50;;;5.00;;
7377;SDS011;3730;50.856;12.776;2023-09-07T00:19:48;7.17;;;5.10;;
7377;SDS011;3730;50.856;12.776;2023-09-07T00:22:15;5.87;;;4.93;;
7377;SDS011;3730;50.856;12.776;2023-09-07T00:24:41;5.70;;;4.80;;
7377;SDS011;3730;50.856;12.776;2023-09-07T00:27:07;5.47;;;4.83;;
7377;SDS011;3730;50.856;12.776;2023-09-07T00:29:36;5.57;;;5.07;;
7377;SDS011;3730;50.856;12.776;2023-09-07T00:32:02;5.10;;;4.67;;
7377;SDS011;3730;50.856;12.776;2023-09-07T00:34:27;6.67;;;4.53;;
7377;SDS011;3730;50.856;12.776;2023-09-07T00:36:53;5.40;;;4.83;;
7377;SDS011;3730;50.856;12.776;2023-09-07T00:39:18;5.07;;;4.57;;
7377;SDS011;3730;50.856;12.776;2023-09-07T00:41:44;5.80;;;4.60;;
7377;SDS011;3730;50.856;12.776;2023-09-07T00:44:09;5.53;;;4.93;;
7377;SDS011;3730;50.856;12.776;2023-09-07T00:46:35;7.57;;;4.50;;
7377;SDS011;3730;50.856;12.776;2023-09-07T00:49:01;5.17;;;4.60;;
7377;SDS011;3730;50.856;12.776;2023-09-07T00:51:29;4.77;;;4.37;;
7377;SDS011;3730;50.856;12.776;2023-09-07T00:53:55;7.00;;;4.83;;
7377;SDS011;3730;50.856;12.776;2023-09-07T00:56:21;6.23;;;4.60;;
7377;SDS011;3730;50.856;12.776;2023-09-07T00:58:47;4.60;;;4.20;;
7377;SDS011;3730;50.856;12.776;2023-09-07T01:01:13;4.90;;;4.40;;
7377;SDS011;3730;50.856;12.776;2023-09-07T01:03:38;5.17;;;4.50;;
7377;SDS011;3730;50.856;12.776;2023-09-07T01:06:07;5.20;;;4.63;;
7377;SDS011;3730;50.856;12.776;2023-09-07T01:08:44;6.37;;;5.73;;
7377;SDS011;3730;50.856;12.776;2023-09-07T01:11:21;9.03;;;5.57;;
7377;SDS011;3730;50.856;12.776;2023-09-07T01:13:50;5.90;;;5.30;;
7377;SDS011;3730;50.856;12.776;2023-09-07T01:16:18;5.90;;;5.40;;
7377;SDS011;3730;50.856;12.776;2023-09-07T01:18:45;6.00;;;5.37;;
7377;SDS011;3730;50.856;12.776;2023-09-07T01:21:12;6.03;;;5.30;;
7377;SDS011;3730;50.856;12.776;2023-09-07T01:23:40;5.70;;;5.20;;
7377;SDS011;3730;50.856;12.776;2023-09-07T01:26:07;5.77;;;5.17;;
7377;SDS011;3730;50.856;12.776;2023-09-07T01:28:34;6.80;;;5.43;;
7377;SDS011;3730;50.856;12.776;2023-09-07T01:31:00;7.47;;;5.30;;
7377;SDS011;3730;50.856;12.776;2023-09-07T01:33:26;6.10;;;5.50;;
7377;SDS011;3730;50.856;12.776;2023-09-07T01:35:52;5.27;;;4.77;;
7377;SDS011;3730;50.856;12.776;2023-09-07T01:38:18;5.97;;;5.37;;
7377;SDS011;3730;50.856;12.776;2023-09-07T01:40:44;5.30;;;4.80;;
7377;SDS011;3730;50.856;12.776;2023-09-07T01:43:10;5.30;;;4.80;;
7377;SDS011;3730;50.856;12.776;2023-09-07T01:45:35;5.13;;;4.63;;
7377;SDS011;3730;50.856;12.776;2023-09-07T01:48:01;5.30;;;4.80;;
7377;SDS011;3730;50.856;12.776;2023-09-07T01:50:28;5.43;;;4.90;;
7377;SDS011;3730;50.856;12.776;2023-09-07T01:52:53;5.30;;;4.80;;
7377;SDS011;3730;50.856;12.776;2023-09-07T01:55:19;6.57;;;4.73;;
7377;SDS011;3730;50.856;12.776;2023-09-07T01:57:45;5.70;;;5.20;;
7377;SDS011;3730;50.856;12.776;2023-09-07T02:00:11;5.57;;;5.07;;
7377;SDS011;3730;50.856;12.776;2023-09-07T02:02:37;5.07;;;4.57;;
7377;SDS011;3730;50.856;12.776;2023-09-07T02:05:03;6.13;;;4.83;;
7377;SDS011;3730;50.856;12.776;2023-09-07T02:07:29;5.87;;;5.00;;
7377;SDS011;3730;50.856;12.776;2023-09-07T02:09:54;7.03;;;4.73;;
7377;SDS011;3730;50.856;12.776;2023-09-07T02:12:20;6.10;;;4.63;;
7377;SDS011;3730;50.856;12.776;2023-09-07T02:14:46;6.47;;;5.23;;
7377;SDS011;3730;50.856;12.776;2023-09-07T02:17:11;5.40;;;4.60;;
7377;SDS011;3730;50.856;12.776;2023-09-07T02:19:42;5.60;;;5.00;;
7377;SDS011;3730;50.856;12.776;2023-09-07T02:22:11;6.17;;;5.07;;
7377;SDS011;3730;50.856;12.776;2023-09-07T02:24:36;6.30;;;5.37;;
7377;SDS011;3730;50.856;12.776;2023-09-07T02:27:02;5.87;;;5.13;;
7377;SDS011;3730;50.856;12.776;2023-09-07T02:29:28;5.93;;;5.37;;
7377;SDS011;3730;50.856;12.776;2023-09-07T02:31:53;7.17;;;4.93;;
7377;SDS011;3730;50.856;12.776;2023-09-07T02:34:19;5.47;;;4.97;;
7377;SDS011;3730;50.856;12.776;2023-09-07T02:36:44;6.03;;;5.43;;
7377;SDS011;3730;50.856;12.776;2023-09-07T02:39:10;5.97;;;5.33;;
7377;SDS011;3730;50.856;12.776;2023-09-07T02:41:37;5.53;;;5.03;;
7377;SDS011;3730;50.856;12.776;2023-09-07T02:44:03;5.63;;;4.83;;
7377;SDS011;3730;50.856;12.776;2023-09-07T02:46:29;5.80;;;5.20;;
7377;SDS011;3730;50.856;12.776;2023-09-07T02:48:55;5.30;;;4.80;;
7377;SDS011;3730;50.856;12.776;2023-09-07T02:51:24;5.83;;;4.60;;
7377;SDS011;3730;50.856;12.776;2023-09-07T02:53:50;5.60;;;4.20;;
7377;SDS011;3730;50.856;12.776;2023-09-07T02:56:16;5.40;;;4.47;;
7377;SDS011;3730;50.856;12.776;2023-09-07T02:58:42;5.67;;;4.27;;
7377;SDS011;3730;50.856;12.776;2023-09-07T03:01:08;4.30;;;3.70;;
7377;SDS011;3730;50.856;12.776;2023-09-07T03:03:34;4.50;;;4.10;;
7377;SDS011;3730;50.856;12.776;2023-09-07T03:06:07;6.87;;;4.37;;
7377;SDS011;3730;50.856;12.776;2023-09-07T03:08:34;5.17;;;4.67;;
7377;SDS011;3730;50.856;12.776;2023-09-07T03:11:02;4.40;;;4.00;;
7377;SDS011;3730;50.856;12.776;2023-09-07T03:13:29;4.97;;;4.57;;
7377;SDS011;3730;50.856;12.776;2023-09-07T03:15:55;5.20;;;4.20;;
7377;SDS011;3730;50.856;12.776;2023-09-07T03:18:21;4.83;;;4.40;;
7377;SDS011;3730;50.856;12.776;2023-09-07T03:20:47;6.37;;;4.83;;
7377;SDS011;3730;50.856;12.776;2023-09-07T03:23:13;6.47;;;4.73;;
7377;SDS011;3730;50.856;12.776;2023-09-07T03:25:39;8.23;;;4.77;;
7377;SDS011;3730;50.856;12.776;2023-09-07T03:28:04;5.93;;;4.27;;
7377;SDS011;3730;50.856;12.776;2023-09-07T03:30:30;6.60;;;4.47;;
7377;SDS011;3730;50.856;12.776;2023-09-07T03:32:56;6.13;;;4.53;;
7377;SDS011;3730;50.856;12.776;2023-09-07T03:35:21;5.80;;;5.20;;
7377;SDS011;3730;50.856;12.776;2023-09-07T03:37:47;5.17;;;4.67;;
7377;SDS011;3730;50.856;12.776;2023-09-07T03:40:13;5.67;;;4.87;;
7377;SDS011;3730;50.856;12.776;2023-09-07T03:42:41;5.30;;;4.80;;
7377;SDS011;3730;50.856;12.776;2023-09-07T03:45:08;6.87;;;4.80;;
7377;SDS011;3730;50.856;12.776;2023-09-07T03:47:34;4.73;;;4.33;;
7377;SDS011;3730;50.856;12.776;2023-09-07T03:50:00;5.90;;;4.67;;
7377;SDS011;3730;50.856;12.776;2023-09-07T03:52:26;4.90;;;4.50;;
7377;SDS011;3730;50.856;12.776;2023-09-07T03:54:55;5.33;;;4.43;;
7377;SDS011;3730;50.856;12.776;2023-09-07T03:57:22;7.10;;;4.80;;
7377;SDS011;3730;50.856;12.776;2023-09-07T03:59:48;7.47;;;5.03;;
7377;SDS011;3730;50.856;12.776;2023-09-07T04:02:14;4.83;;;4.40;;
7377;SDS011;3730;50.856;12.776;2023-09-07T04:04:40;6.93;;;4.80;;
7377;SDS011;3730;50.856;12.776;2023-09-07T04:07:06;6.83;;;4.93;;
7377;SDS011;3730;50.856;12.776;2023-09-07T04:09:31;5.50;;;4.90;;
7377;SDS011;3730;50.856;12.776;2023-09-07T04:11:57;5.27;;;4.77;;
7377;SDS011;3730;50.856;12.776;2023-09-07T04:14:23;7.10;;;4.70;;
7377;SDS011;3730;50.856;12.776;2023-09-07T04:16:48;5.97;;;4.50;;
7377;SDS011;3730;50.856;12.776;2023-09-07T04:19:15;6.00;;;4.87;;
7377;SDS011;3730;50.856;12.776;2023-09-07T04:21:41;5.30;;;4.70;;
7377;SDS011;3730;50.856;12.776;2023-09-07T04:24:06;5.57;;;4.50;;
7377;SDS011;3730;50.856;12.776;2023-09-07T04:26:32;5.07;;;4.60;;
7377;SDS011;3730;50.856;12.776;2023-09-07T04:28:58;9.83;;;5.17;;
7377;SDS011;3730;50.856;12.776;2023-09-07T04:31:24;5.53;;;4.90;;
7377;SDS011;3730;50.856;12.776;2023-09-07T04:33:52;9.80;;;5.17;;
7377;SDS011;3730;50.856;12.776;2023-09-07T04:36:18;9.83;;;5.10;;
7377;SDS011;3730;50.856;12.776;2023-09-07T04:38:44;9.03;;;5.03;;
7377;SDS011;3730;50.856;12.776;2023-09-07T04:41:11;5.67;;;5.00;;
7377;SDS011;3730;50.856;12.776;2023-09-07T04:43:38;8.73;;;6.80;;
7377;SDS011;3730;50.856;12.776;2023-09-07T04:46:05;6.20;;;5.60;;
7377;SDS011;3730;50.856;12.776;2023-09-07T04:48:31;9.90;;;5.87;;
7377;SDS011;3730;50.856;12.776;2023-09-07T04:51:02;6.97;;;5.13;;
7377;SDS011;3730;50.856;12.776;2023-09-07T04:53:29;13.23;;;5.70;;
7377;SDS011;3730;50.856;12.776;2023-09-07T04:55:56;10.00;;;5.63;;
7377;SDS011;3730;50.856;12.776;2023-09-07T04:58:22;24.70;;;6.97;;
7377;SDS011;3730;50.856;12.776;2023-09-07T05:00:48;19.10;;;6.50;;
7377;SDS011;3730;50.856;12.776;2023-09-07T05:03:13;8.53;;;5.40;;
7377;SDS011;3730;50.856;12.776;2023-09-07T05:05:40;9.37;;;5.90;;
7377;SDS011;3730;50.856;12.776;2023-09-07T05:08:06;7.17;;;5.87;;
7377;SDS011;3730;50.856;12.776;2023-09-07T05:10:35;6.23;;;5.40;;
7377;SDS011;3730;50.856;12.776;2023-09-07T05:13:02;10.13;;;6.37;;
7377;SDS011;3730;50.856;12.776;2023-09-07T05:15:28;9.47;;;6.37;;
7377;SDS011;3730;50.856;12.776;2023-09-07T05:17:53;11.40;;;6.50;;
7377;SDS011;3730;50.856;12.776;2023-09-07T05:20:20;10.47;;;7.00;;
7377;SDS011;3730;50.856;12.776;2023-09-07T05:22:46;9.33;;;6.13;;
7377;SDS011;3730;50.856;12.776;2023-09-07T05:25:12;9.00;;;6.10;;
7377;SDS011;3730;50.856;12.776;2023-09-07T05:27:38;6.60;;;5.70;;
7377;SDS011;3730;50.856;12.776;2023-09-07T05:30:04;11.53;;;6.67;;
7377;SDS011;3730;50.856;12.776;2023-09-07T05:32:30;11.47;;;7.20;;
7377;SDS011;3730;50.856;12.776;2023-09-07T05:34:56;7.87;;;6.20;;
7377;SDS011;3730;50.856;12.776;2023-09-07T05:37:21;7.13;;;6.27;;
7377;SDS011;3730;50.856;12.776;2023-09-07T05:39:47;8.33;;;5.83;;
7377;SDS011;3730;50.856;12.776;2023-09-07T05:42:13;8.10;;;5.90;;
7377;SDS011;3730;50.856;12.776;2023-09-07T05:44:39;8.80;;;6.40;;
7377;SDS011;3730;50.856;12.776;2023-09-07T05:47:05;9.57;;;5.63;;
7377;SDS011;3730;50.856;12.776;2023-09-07T05:49:31;7.73;;;5.60;;
7377;SDS011;3730;50.856;12.776;2023-09-07T05:51:56;6.33;;;5.17;;
7377;SDS011;3730;50.856;12.776;2023-09-07T05:54:22;6.23;;;4.60;;
7377;SDS011;3730;50.856;12.776;2023-09-07T05:56:48;10.03;;;5.67;;
7377;SDS011;3730;50.856;12.776;2023-09-07T05:59:13;8.53;;;6.10;;
7377;SDS011;3730;50.856;12.776;2023-09-07T06:01:39;6.50;;;5.60;;
7377;SDS011;3730;50.856;12.776;2023-09-07T06:04:05;6.13;;;5.30;;
7377;SDS011;3730;50.856;12.776;2023-09-07T06:06:31;5.47;;;5.03;;
7377;SDS011;3730;50.856;12.776;2023-09-07T06:08:57;5.37;;;4.97;;
7377;SDS011;3730;50.856;12.776;2023-09-07T06:11:25;5.60;;;5.10;;
7377;SDS011;3730;50.856;12.776;2023-09-07T06:13:51;6.13;;;5.43;;
7377;SDS011;3730;50.856;12.776;2023-09-07T06:16:17;7.00;;;5.20;;
7377;SDS011;3730;50.856;12.776;2023-09-07T06:18:42;6.10;;;5.43;;
7377;SDS011;3730;50.856;12.776;2023-09-07T06:21:08;15.73;;;6.17;;
7377;SDS011;3730;50.856;12.776;2023-09-07T06:23:34;12.60;;;6.03;;
7377;SDS011;3730;50.856;12.776;2023-09-07T06:26:00;7.63;;;5.70;;
7377;SDS011;3730;50.856;12.776;2023-09-07T06:28:26;6.93;;;6.10;;
7377;SDS011;3730;50.856;12.776;2023-09-07T06:30:52;10.43;;;6.80;;
7377;SDS011;3730;50.856;12.776;2023-09-07T06:33:17;6.53;;;5.83;;
7377;SDS011;3730;50.856;12.776;2023-09-07T06:35:43;6.27;;;5.67;;
7377;SDS011;3730;50.856;12.776;2023-09-07T06:38:09;22.97;;;6.80;;
7377;SDS011;3730;50.856;12.776;2023-09-07T06:40:34;15.27;;;6.33;;
7377;SDS011;3730;50.856;12.776;2023-09-07T06:43:01;9.00;;;5.67;;
7377;SDS011;3730;50.856;12.776;2023-09-07T06:45:33;9.03;;;6.03;;
7377;SDS011;3730;50.856;12.776;2023-09-07T06:48:02;8.23;;;6.03;;
7377;SDS011;3730;50.856;12.776;2023-09-07T06:50:28;6.07;;;5.47;;
7377;SDS011;3730;50.856;12.776;2023-09-07T06:52:54;8.30;;;5.10;;
7377;SDS011;3730;50.856;12.776;2023-09-07T06:55:20;9.67;;;6.07;;
7377;SDS011;3730;50.856;12.776;2023-09-07T06:57:45;11.10;;;6.60;;
7377;SDS011;3730;50.856;12.776;2023-09-07T07:00:11;12.60;;;6.30;;
7377;SDS011;3730;50.856;12.776;2023-09-07T07:02:37;7.90;;;5.90;;
7377;SDS011;3730;50.856;12.776;2023-09-07T07:05:03;9.27;;;6.27;;
7377;SDS011;3730;50.856;12.776;2023-09-07T07:07:29;6.20;;;5.50;;
7377;SDS011;3730;50.856;12.776;2023-09-07T07:09:55;7.13;;;5.60;;
7377;SDS011;3730;50.856;12.776;2023-09-07T07:12:21;8.53;;;5.83;;
7377;SDS011;3730;50.856;12.776;2023-09-07T07:14:47;10.90;;;5.87;;
7377;SDS011;3730;50.856;12.776;2023-09-07T07:17:13;7.90;;;5.23;;
7377;SDS011;3730;50.856;12.776;2023-09-07T07:19:39;6.17;;;5.53;;
7377;SDS011;3730;50.856;12.776;2023-09-07T07:22:06;7.43;;;5.50;;
7377;SDS011;3730;50.856;12.776;2023-09-07T07:24:32;10.07;;;6.00;;
7377;SDS011;3730;50.856;12.776;2023-09-07T07:26:58;7.30;;;5.27;;
7377;SDS011;3730;50.856;12.776;2023-09-07T07:29:24;13.13;;;6.30;;
7377;SDS011;3730;50.856;12.776;2023-09-07T07:31:50;6.23;;;5.07;;
7377;SDS011;3730;50.856;12.776;2023-09-07T07:34:16;5.37;;;4.80;;
7377;SDS011;3730;50.856;12.776;2023-09-07T07:36:42;7.40;;;5.37;;
7377;SDS011;3730;50.856;12.776;2023-09-07T07:39:08;6.43;;;4.63;;
7377;SDS011;3730;50.856;12.776;2023-09-07T07:41:37;5.27;;;4.33;;
7377;SDS011;3730;50.856;12.776;2023-09-07T07:44:03;5.67;;;4.60;;
7377;SDS011;3730;50.856;12.776;2023-09-07T07:46:29;6.90;;;5.00;;
7377;SDS011;3730;50.856;12.776;2023-09-07T07:48:54;6.83;;;5.00;;
7377;SDS011;3730;50.856;12.776;2023-09-07T07:51:20;9.40;;;4.40;;
7377;SDS011;3730;50.856;12.776;2023-09-07T07:53:46;6.03;;;4.87;;
7377;SDS011;3730;50.856;12.776;2023-09-07T07:56:15;5.50;;;4.93;;
7377;SDS011;3730;50.856;12.776;2023-09-07T07:58:44;5.83;;;4.47;;
7377;SDS011;3730;50.856;12.776;2023-09-07T08:01:14;5.93;;;4.70;;
7377;SDS011;3730;50.856;12.776;2023-09-07T08:03:40;7.73;;;4.80;;
7377;SDS011;3730;50.856;12.776;2023-09-07T08:06:06;7.20;;;4.97;;
7377;SDS011;3730;50.856;12.776;2023-09-07T08:08:32;5.70;;;5.07;;
7377;SDS011;3730;50.856;12.776;2023-09-07T08:10:58;4.97;;;4.57;;
7377;SDS011;3730;50.856;12.776;2023-09-07T08:13:27;5.03;;;4.53;;
7377;SDS011;3730;50.856;12.776;2023-09-07T08:15:53;6.90;;;5.30;;
7377;SDS011;3730;50.856;12.776;2023-09-07T08:18:19;7.73;;;5.27;;
7377;SDS011;3730;50.856;12.776;2023-09-07T08:20:45;5.03;;;4.53;;
7377;SDS011;3730;50.856;12.776;2023-09-07T08:23:11;7.30;;;4.17;;
7377;SDS011;3730;50.856;12.776;2023-09-07T08:25:37;6.17;;;4.87;;
7377;SDS011;3730;50.856;12.776;2023-09-07T08:28:04;19.80;;;5.97;;
7377;SDS011;3730;50.856;12.776;2023-09-07T08:30:32;5.97;;;4.90;;
7377;SDS011;3730;50.856;12.776;2023-09-07T08:32:59;4.80;;;4.40;;
7377;SDS011;3730;50.856;12.776;2023-09-07T08:35:27;14.97;;;13.47;;
7377;SDS011;3730;50.856;12.776;2023-09-07T08:37:54;5.70;;;5.20;;
7377;SDS011;3730;50.856;12.776;2023-09-07T08:40:22;5.50;;;4.40;;
7377;SDS011;3730;50.856;12.776;2023-09-07T08:42:51;7.90;;;5.00;;
7377;SDS011;3730;50.856;12.776;2023-09-07T08:45:18;6.40;;;4.60;;
7377;SDS011;3730;50.856;12.776;2023-09-07T08:47:47;8.73;;;5.00;;
7377;SDS011;3730;50.856;12.776;2023-09-07T08:50:14;7.90;;;4.87;;
7377;SDS011;3730;50.856;12.776;2023-09-07T08:52:41;8.87;;;4.80;;
7377;SDS011;3730;50.856;12.776;2023-09-07T08:55:08;15.80;;;5.47;;
7377;SDS011;3730;50.856;12.776;2023-09-07T08:57:34;7.90;;;4.70;;
7377;SDS011;3730;50.856;12.776;2023-09-07T09:00:00;4.53;;;4.23;;
7377;SDS011;3730;50.856;12.776;2023-09-07T09:02:33;9.87;;;4.40;;
7377;SDS011;3730;50.856;12.776;2023-09-07T09:05:01;10.93;;;4.80;;
7377;SDS011;3730;50.856;12.776;2023-09-07T09:07:29;6.27;;;4.30;;
7377;SDS011;3730;50.856;12.776;2023-09-07T09:10:02;9.37;;;4.90;;
7377;SDS011;3730;50.856;12.776;2023-09-07T09:12:30;9.13;;;4.53;;
7377;SDS011;3730;50.856;12.776;2023-09-07T09:14:56;5.83;;;4.83;;
7377;SDS011;3730;50.856;12.776;2023-09-07T09:17:24;5.43;;;4.90;;
7377;SDS011;3730;50.856;12.776;2023-09-07T09:19:50;5.97;;;4.47;;
7377;SDS011;3730;50.856;12.776;2023-09-07T09:22:16;8.63;;;6.17;;
7377;SDS011;3730;50.856;12.776;2023-09-07T09:24:45;6.23;;;4.40;;
7377;SDS011;3730;50.856;12.776;2023-09-07T09:27:13;5.20;;;4.70;;
7377;SDS011;3730;50.856;12.776;2023-09-07T09:29:39;6.40;;;5.80;;
7377;SDS011;3730;50.856;12.776;2023-09-07T09:32:06;8.13;;;4.60;;
7377;SDS011;3730;50.856;12.776;2023-09-07T09:34:35;6.53;;;4.90;;
7377;SDS011;3730;50.856;12.776;2023-09-07T09:37:02;7.17;;;5.87;;
7377;SDS011;3730;50.856;12.776;2023-09-07T09:39:31;10.77;;;4.83;;
7377;SDS011;3730;50.856;12.776;2023-09-07T09:41:57;6.23;;;5.63;;
7377;SDS011;3730;50.856;12.776;2023-09-07T09:44:24;8.27;;;6.37;;
7377;SDS011;3730;50.856;12.776;2023-09-07T09:46:51;7.73;;;4.80;;
7377;SDS011;3730;50.856;12.776;2023-09-07T09:49:19;8.20;;;4.40;;
7377;SDS011;3730;50.856;12.776;2023-09-07T09:51:47;4.97;;;4.10;;
7377;SDS011;3730;50.856;12.776;2023-09-07T09:54:16;4.97;;;4.57;;
7377;SDS011;3730;50.856;12.776;2023-09-07T09:56:42;5.23;;;4.73;;
7377;SDS011;3730;50.856;12.776;2023-09-07T09:59:09;5.57;;;4.47;;
7377;SDS011;3730;50.856;12.776;2023-09-07T10:01:39;6.27;;;4.17;;
7377;SDS011;3730;50.856;12.776;2023-09-07T10:04:09;4.40;;;4.00;;
7377;SDS011;3730;50.856;12.776;2023-09-07T10:06:36;4.50;;;3.70;;
7377;SDS011;3730;50.856;12.776;2023-09-07T10:09:03;3.77;;;3.47;;
7377;SDS011;3730;50.856;12.776;2023-09-07T10:11:36;5.07;;;3.63;;
7377;SDS011;3730;50.856;12.776;2023-09-07T10:14:03;4.10;;;3.70;;
7377;SDS011;3730;50.856;12.776;2023-09-07T10:16:41;3.80;;;3.50;;
7377;SDS011;3730;50.856;12.776;2023-09-07T10:19:18;5.07;;;3.40;;
7377;SDS011;3730;50.856;12.776;2023-09-07T10:21:45;3.70;;;3.40;;
7377;SDS011;3730;50.856;12.776;2023-09-07T10:24:11;3.90;;;3.60;;
7377;SDS011;3730;50.856;12.776;2023-09-07T10:26:37;3.93;;;3.40;;
7377;SDS011;3730;50.856;12.776;2023-09-07T10:29:03;4.17;;;3.50;;
7377;SDS011;3730;50.856;12.776;2023-09-07T10:31:30;5.37;;;3.53;;
7377;SDS011;3730;50.856;12.776;2023-09-07T10:34:07;3.67;;;3.37;;
7377;SDS011;3730;50.856;12.776;2023-09-07T10:36:34;3.80;;;3.37;;
7377;SDS011;3730;50.856;12.776;2023-09-07T10:39:00;3.77;;;3.47;;
7377;SDS011;3730;50.856;12.776;2023-09-07T10:41:26;41.03;;;6.33;;
7377;SDS011;3730;50.856;12.776;2023-09-07T10:43:55;8.97;;;4.00;;
7377;SDS011;3730;50.856;12.776;2023-09-07T10:46:22;7.67;;;3.83;;
7377;SDS011;3730;50.856;12.776;2023-09-07T10:48:52;4.67;;;3.97;;
7377;SDS011;3730;50.856;12.776;2023-09-07T10:51:19;9.57;;;4.10;;
7377;SDS011;3730;50.856;12.776;2023-09-07T10:53:45;5.37;;;3.87;;
7377;SDS011;3730;50.856;12.776;2023-09-07T10:56:11;3.53;;;3.20;;
7377;SDS011;3730;50.856;12.776;2023-09-07T10:58:37;6.23;;;3.57;;
7377;SDS011;3730;50.856;12.776;2023-09-07T11:01:05;5.32;;;3.42;;
7377;SDS011;3730;50.856;12.776;2023-09-07T11:03:32;3.90;;;3.20;;
7377;SDS011;3730;50.856;12.776;2023-09-07T11:06:09;6.10;;;3.70;;
7377;SDS011;3730;50.856;12.776;2023-09-07T11:08:36;3.30;;;3.00;;
7377;SDS011;3730;50.856;12.776;2023-09-07T11:11:02;4.72;;;2.85;;
7377;SDS011;3730;50.856;12.776;2023-09-07T11:13:29;2.92;;;2.72;;
7377;SDS011;3730;50.856;12.776;2023-09-07T11:15:55;3.30;;;3.10;;
7377;SDS011;3730;50.856;12.776;2023-09-07T11:18:23;3.78;;;3.40;;
7377;SDS011;3730;50.856;12.776;2023-09-07T11:20:50;7.75;;;3.50;;
7377;SDS011;3730;50.856;12.776;2023-09-07T11:23:17;4.78;;;3.33;;
7377;SDS011;3730;50.856;12.776;2023-09-07T11:25:43;8.02;;;3.35;;
7377;SDS011;3730;50.856;12.776;2023-09-07T11:28:09;8.40;;;3.53;;
7377;SDS011;3730;50.856;12.776;2023-09-07T11:30:48;2.97;;;2.78;;
7377;SDS011;3730;50.856;12.776;2023-09-07T11:33:15;3.50;;;3.20;;
7377;SDS011;3730;50.856;12.776;2023-09-07T11:35:41;7.68;;;3.15;;
7377;SDS011;3730;50.856;12.776;2023-09-07T11:38:08;5.65;;;3.40;;
7377;SDS011;3730;50.856;12.776;2023-09-07T11:40:36;9.68;;;3.72;;
7377;SDS011;3730;50.856;12.776;2023-09-07T11:43:02;4.65;;;3.28;;
7377;SDS011;3730;50.856;12.776;2023-09-07T11:45:28;4.63;;;3.35;;
7377;SDS011;3730;50.856;12.776;2023-09-07T11:47:54;3.60;;;3.30;;
7377;SDS011;3730;50.856;12.776;2023-09-07T11:50:22;4.95;;;3.20;;
7377;SDS011;3730;50.856;12.776;2023-09-07T11:52:49;6.30;;;3.25;;
7377;SDS011;3730;50.856;12.776;2023-09-07T11:55:15;3.33;;;3.03;;
7377;SDS011;3730;50.856;12.776;2023-09-07T11:57:41;4.60;;;2.90;;
7377;SDS011;3730;50.856;12.776;2023-09-07T12:00:08;4.10;;;3.50;;
7377;SDS011;3730;50.856;12.776;2023-09-07T12:02:40;4.47;;;3.35;;
7377;SDS011;3730;50.856;12.776;2023-09-07T12:05:06;5.13;;;3.28;;
7377;SDS011;3730;50.856;12.776;2023-09-07T12:07:34;2.88;;;2.67;;
7377;SDS011;3730;50.856;12.776;2023-09-07T12:10:00;5.80;;;3.47;;
7377;SDS011;3730;50.856;12.776;2023-09-07T12:12:26;3.00;;;2.80;;
7377;SDS011;3730;50.856;12.776;2023-09-07T12:14:52;5.05;;;3.83;;
7377;SDS011;3730;50.856;12.776;2023-09-07T12:17:18;3.17;;;2.88;;
7377;SDS011;3730;50.856;12.776;2023-09-07T12:19:44;4.40;;;2.53;;
7377;SDS011;3730;50.856;12.776;2023-09-07T12:22:11;4.68;;;3.13;;
7377;SDS011;3730;50.856;12.776;2023-09-07T12:24:37;3.28;;;2.22;;
7377;SDS011;3730;50.856;12.776;2023-09-07T12:27:03;3.38;;;2.72;;
7377;SDS011;3730;50.856;12.776;2023-09-07T12:29:29;4.18;;;2.80;;
7377;SDS011;3730;50.856;12.776;2023-09-07T12:31:55;2.50;;;2.30;;
7377;SDS011;3730;50.856;12.776;2023-09-07T12:34:22;4.43;;;2.90;;
7377;SDS011;3730;50.856;12.776;2023-09-07T12:36:48;3.78;;;2.80;;
7377;SDS011;3730;50.856;12.776;2023-09-07T12:39:14;4.10;;;2.83;;
7377;SDS011;3730;50.856;12.776;2023-09-07T12:41:40;3.30;;;2.70;;
7377;SDS011;3730;50.856;12.776;2023-09-07T12:44:06;3.45;;;2.80;;
7377;SDS011;3730;50.856;12.776;2023-09-07T12:46:32;4.55;;;2.50;;
7377;SDS011;3730;50.856;12.776;2023-09-07T12:48:58;3.15;;;2.72;;
7377;SDS011;3730;50.856;12.776;2023-09-07T12:51:24;40.33;;;3.30;;
7377;SDS011;3730;50.856;12.776;2023-09-07T12:53:50;3.30;;;2.35;;
7377;SDS011;3730;50.856;12.776;2023-09-07T12:56:16;3.08;;;2.53;;
7377;SDS011;3730;50.856;12.776;2023-09-07T12:58:43;5.57;;;2.50;;
7377;SDS011;3730;50.856;12.776;2023-09-07T13:01:09;2.63;;;2.42;;
7377;SDS011;3730;50.856;12.776;2023-09-07T13:03:37;3.75;;;2.50;;
7377;SDS011;3730;50.856;12.776;2023-09-07T13:06:03;11.48;;;2.75;;
7377;SDS011;3730;50.856;12.776;2023-09-07T13:08:30;2.90;;;2.30;;
7377;SDS011;3730;50.856;12.776;2023-09-07T13:10:56;2.83;;;2.63;;
7377;SDS011;3730;50.856;12.776;2023-09-07T13:13:22;5.30;;;2.42;;
7377;SDS011;3730;50.856;12.776;2023-09-07T13:15:51;14.98;;;2.90;;
7377;SDS011;3730;50.856;12.776;2023-09-07T13:18:17;3.47;;;2.83;;
7377;SDS011;3730;50.856;12.776;2023-09-07T13:20:43;48.22;;;3.88;;
7377;SDS011;3730;50.856;12.776;2023-09-07T13:23:10;6.10;;;2.75;;
7377;SDS011;3730;50.856;12.776;2023-09-07T13:25:36;55.15;;;4.55;;
7377;SDS011;3730;50.856;12.776;2023-09-07T13:28:02;88.68;;;5.35;;
7377;SDS011;3730;50.856;12.776;2023-09-07T13:30:28;21.52;;;3.20;;
7377;SDS011;3730;50.856;12.776;2023-09-07T13:32:54;45.50;;;3.80;;
7377;SDS011;3730;50.856;12.776;2023-09-07T13:35:20;50.33;;;3.78;;
7377;SDS011;3730;50.856;12.776;2023-09-07T13:37:46;6.55;;;3.22;;
7377;SDS011;3730;50.856;12.776;2023-09-07T13:40:12;71.30;;;5.97;;
7377;SDS011;3730;50.856;12.776;2023-09-07T13:42:40;39.33;;;3.92;;
7377;SDS011;3730;50.856;12.776;2023-09-07T13:45:06;51.15;;;4.28;;
7377;SDS011;3730;50.856;12.776;2023-09-07T13:47:32;16.88;;;3.50;;
7377;SDS011;3730;50.856;12.776;2023-09-07T13:49:58;47.58;;;4.32;;
7377;SDS011;3730;50.856;12.776;2023-09-07T13:52:24;60.65;;;6.38;;
7377;SDS011;3730;50.856;12.776;2023-09-07T13:54:51;41.60;;;4.45;;
7377;SDS011;3730;50.856;12.776;2023-09-07T13:57:17;40.53;;;4.22;;
7377;SDS011;3730;50.856;12.776;2023-09-07T13:59:43;53.50;;;4.82;;
7377;SDS011;3730;50.856;12.776;2023-09-07T14:02:09;42.08;;;4.25;;
7377;SDS011;3730;50.856;12.776;2023-09-07T14:04:35;38.35;;;4.35;;
7377;SDS011;3730;50.856;12.776;2023-09-07T14:07:01;58.75;;;4.22;;
7377;SDS011;3730;50.856;12.776;2023-09-07T14:09:27;61.35;;;6.03;;
7377;SDS011;3730;50.856;12.776;2023-09-07T14:11:53;98.57;;;5.65;;
7377;SDS011;3730;50.856;12.776;2023-09-07T14:14:19;63.00;;;5.55;;
7377;SDS011;3730;50.856;12.776;2023-09-07T14:16:45;88.50;;;4.97;;
7377;SDS011;3730;50.856;12.776;2023-09-07T14:19:11;51.15;;;4.65;;
7377;SDS011;3730;50.856;12.776;2023-09-07T14:21:37;49.95;;;4.75;;
7377;SDS011;3730;50.856;12.776;2023-09-07T14:24:03;60.92;;;4.18;;
7377;SDS011;3730;50.856;12.776;2023-09-07T14:26:29;40.65;;;4.43;;
7377;SDS011;3730;50.856;12.776;2023-09-07T14:28:55;58.17;;;6.13;;
7377;SDS011;3730;50.856;12.776;2023-09-07T14:31:21;52.33;;;4.20;;
7377;SDS011;3730;50.856;12.776;2023-09-07T14:33:47;51.78;;;4.68;;
7377;SDS011;3730;50.856;12.776;2023-09-07T14:36:13;116.25;;;5.95;;
7377;SDS011;3730;50.856;12.776;2023-09-07T14:38:41;49.50;;;4.38;;
7377;SDS011;3730;50.856;12.776;2023-09-07T14:41:09;41.03;;;3.92;;
7377;SDS011;3730;50.856;12.776;2023-09-07T14:43:42;53.30;;;4.57;;
7377;SDS011;3730;50.856;12.776;2023-09-07T14:46:08;55.08;;;5.32;;
7377;SDS011;3730;50.856;12.776;2023-09-07T14:48:34;92.05;;;6.13;;
7377;SDS011;3730;50.856;12.776;2023-09-07T14:51:00;47.72;;;4.97;;
7377;SDS011;3730;50.856;12.776;2023-09-07T14:53:26;51.78;;;4.47;;